VLG1504 LEPA-LEAL
Flight info
| Callsign | VLG1504 |
|---|---|
| Flight time | N/A |
| Altitude | 21000 |
| Route | BAVER M603 GERVU |
| Aircraft | A320/M-SDE3FGHIRWY/LB1 |
Departure
| Time | N/A |
|---|---|
| Airport | Palma de Mallorca Airport (LEPA) |
Arrival
| Time | 2026-05-03 21:13 |
|---|---|
| Airport | Alicante-Elche Miguel Hernández Airport (LEAL) |
| Time | Latitude | Longitude | Altitude | Speed | Heading |
|---|---|---|---|---|---|
| 2026-05-03 21:04 | 38.22189 | -0.61868 | 6001 ft | 220 kts | 281° |
| 2026-05-03 21:05 | 38.22505 | -0.63762 | 6007 ft | 219 kts | 281° |
| 2026-05-03 21:05 | 38.22818 | -0.65632 | 6011 ft | 219 kts | 281° |
| 2026-05-03 21:05 | 38.23134 | -0.67520 | 6004 ft | 218 kts | 281° |
| 2026-05-03 21:05 | 38.23448 | -0.69388 | 5853 ft | 212 kts | 281° |
| 2026-05-03 21:06 | 38.23749 | -0.71184 | 5725 ft | 204 kts | 281° |
| 2026-05-03 21:06 | 38.24039 | -0.72913 | 5604 ft | 196 kts | 281° |
| 2026-05-03 21:06 | 38.24320 | -0.74583 | 5428 ft | 191 kts | 281° |
| 2026-05-03 21:06 | 38.24603 | -0.76267 | 4957 ft | 196 kts | 281° |
| 2026-05-03 21:07 | 38.24888 | -0.77962 | 4470 ft | 195 kts | 281° |
| 2026-05-03 21:07 | 38.25174 | -0.79651 | 3963 ft | 195 kts | 281° |
| 2026-05-03 21:07 | 38.25512 | -0.81323 | 3465 ft | 197 kts | 293° |
| 2026-05-03 21:07 | 38.26298 | -0.82718 | 3301 ft | 194 kts | 309° |
| 2026-05-03 21:08 | 38.27286 | -0.83885 | 3295 ft | 196 kts | 330° |
| 2026-05-03 21:08 | 38.28542 | -0.84566 | 3307 ft | 197 kts | 340° |
| 2026-05-03 21:08 | 38.29862 | -0.85011 | 3302 ft | 198 kts | 359° |
| 2026-05-03 21:08 | 38.31138 | -0.84488 | 3302 ft | 196 kts | 40° |
| 2026-05-03 21:09 | 38.31842 | -0.83061 | 3299 ft | 192 kts | 81° |
| 2026-05-03 21:09 | 38.31765 | -0.81389 | 3316 ft | 191 kts | 102° |
| 2026-05-03 21:09 | 38.31528 | -0.79726 | 3307 ft | 191 kts | 102° |
| 2026-05-03 21:09 | 38.31295 | -0.78060 | 3266 ft | 192 kts | 102° |
| 2026-05-03 21:10 | 38.31065 | -0.76398 | 3082 ft | 190 kts | 101° |
| 2026-05-03 21:10 | 38.30838 | -0.74745 | 2848 ft | 189 kts | 101° |
| 2026-05-03 21:10 | 38.30612 | -0.73104 | 2598 ft | 188 kts | 101° |
| 2026-05-03 21:10 | 38.30387 | -0.71473 | 2354 ft | 186 kts | 101° |
| 2026-05-03 21:11 | 38.30163 | -0.69851 | 2111 ft | 184 kts | 101° |
| 2026-05-03 21:11 | 38.29945 | -0.68267 | 1869 ft | 179 kts | 101° |
| 2026-05-03 21:11 | 38.29735 | -0.66750 | 1642 ft | 169 kts | 101° |
| 2026-05-03 21:11 | 38.29534 | -0.65299 | 1405 ft | 165 kts | 100° |
| 2026-05-03 21:12 | 38.29339 | -0.63891 | 1191 ft | 163 kts | 100° |
| 2026-05-03 21:12 | 38.29147 | -0.62512 | 1002 ft | 147 kts | 100° |
| 2026-05-03 21:12 | 38.28978 | -0.61284 | 748 ft | 139 kts | 99° |
| 2026-05-03 21:12 | 38.28818 | -0.60091 | 554 ft | 135 kts | 99° |
| 2026-05-03 21:13 | 38.28651 | -0.58922 | 402 ft | 134 kts | 100° |
| 2026-05-03 21:13 | 38.28487 | -0.57754 | 238 ft | 134 kts | 99° |
| 2026-05-03 21:13 | 38.28330 | -0.56618 | 121 ft | 119 kts | 99° |
| 2026-05-03 21:13 | 38.28217 | -0.55816 | 104 ft | 46 kts | 99° |
| 2026-05-03 21:14 | 38.28234 | -0.55589 | 97 ft | 26 kts | 77° |
| 2026-05-03 21:14 | 38.28289 | -0.55372 | 92 ft | 20 kts | 68° |
| 2026-05-03 21:14 | 38.28354 | -0.55211 | 88 ft | 10 kts | 54° |
| 2026-05-03 21:14 | 38.28409 | -0.55143 | 90 ft | 12 kts | 28° |
| 2026-05-03 21:15 | 38.28481 | -0.55125 | 91 ft | 10 kts | 8° |
| 2026-05-03 21:15 | 38.28509 | -0.55120 | 89 ft | 0 kts | 7° |